Harvey Spirit — WDD4830 — position and weather

sailwx.info

Track history (hours):
 
Tides and Currents Weather Stations Pressure Air Temp Water Temp Dewpoint Dewpoint Depression Visibility Wind Speed Wind Dir Waves Ship Positions

Harvey Spirit

Owner: Harvey Spirit LLC, New Orleans, LA. More information available from US FCC via Universal Licensing System and Coast Guard Vessel Documentation Center.

Last reported at 2018-Jan-11 18:50 UTC. Time now 2018-Feb-20 19:55 UTC.
Position N 27°31' W 090°35'.
Warning: this ship's position is 40 days out of date.

Length 80 m; draft 4.3 m.

Type: Other ship. MMSI: 368584000.

Date/timePositionNaut miles runAvg speedWind from/ knotsBaromVisibWave heightAir tempDewpointWater temp
2018-Jan-11 18:50N 27°31' W 090°35'2 6.5
2018-Jan-11 18:29N 27°29' W 090°33'0 0.6
2018-Jan-11 17:59N 27°29' W 090°34'0 0.2
2018-Jan-11 17:29N 27°29' W 090°34'0 0.2
2018-Jan-11 17:00N 27°29' W 090°33'0 0.3
2018-Jan-11 16:29N 27°28' W 090°33'0 0.1
2018-Jan-11 15:59N 27°28' W 090°33'0 0.4
2018-Jan-11 15:27N 27°29' W 090°34'0 0.1
2018-Jan-11 14:59N 27°29' W 090°34'0 0.3
2018-Jan-11 14:30N 27°28' W 090°34'0 0.1
2018-Jan-11 12:58N 27°29' W 090°34'0 0.0
2018-Jan-11 12:28N 27°29' W 090°34'0 0.2
2018-Jan-11 11:56N 27°28' W 090°34'0 0.3
2018-Jan-11 11:30N 27°28' W 090°34'0 0.1
2018-Jan-11 10:58N 27°28' W 090°34'0 0.0
2018-Jan-11 10:29N 27°28' W 090°34'0 0.2
2018-Jan-11 09:59N 27°28' W 090°34'0 0.1
2018-Jan-11 09:30N 27°29' W 090°34'1 0.9
2018-Jan-11 07:59N 27°27' W 090°35'1 0.2
2018-Jan-11 04:29N 27°28' W 090°34'1 1.2
2018-Jan-11 03:44N 27°29' W 090°34'0 0.0
2018-Jan-11 03:24N 27°29' W 090°34'0 0.0
2018-Jan-11 02:57N 27°29' W 090°34'0 0.0
2018-Jan-11 02:30N 27°29' W 090°34'0 0.0
2018-Jan-11 01:59N 27°29' W 090°34'0 0.0
2018-Jan-11 01:30N 27°29' W 090°34'0 0.0
2018-Jan-11 01:00N 27°29' W 090°34'0 0.2
2018-Jan-11 00:28N 27°28' W 090°34'0 0.3
2018-Jan-10 23:43N 27°29' W 090°34'0 0.0
2018-Jan-10 23:30N 27°29' W 090°34'0 0.0
2018-Jan-10 22:58N 27°29' W 090°34'0 0.0
2018-Jan-10 22:30N 27°29' W 090°34'0 0.0
2018-Jan-10 21:58N 27°29' W 090°34'0 0.0
2018-Jan-10 21:27N 27°29' W 090°34'0 0.0
2018-Jan-10 20:59N 27°29' W 090°34'0 0.0
2018-Jan-10 20:30N 27°29' W 090°34'0 0.0
2018-Jan-10 20:00N 27°29' W 090°34'0 0.1
2018-Jan-10 19:30N 27°29' W 090°34'0 0.0
2018-Jan-10 18:58N 27°29' W 090°34'0 0.0
2018-Jan-10 18:30N 27°29' W 090°34'0 0.0
2018-Jan-10 18:00N 27°29' W 090°34'0 0.0
2018-Jan-10 17:29N 27°29' W 090°34'0 0.0
2018-Jan-10 17:00N 27°29' W 090°34'0 0.0
2018-Jan-10 16:26N 27°29' W 090°34'0 0.0
2018-Jan-10 15:59N 27°29' W 090°34'0 0.0
2018-Jan-10 15:30N 27°29' W 090°34'0 0.0
2018-Jan-10 15:00N 27°29' W 090°34'0 0.0
2018-Jan-10 14:29N 27°29' W 090°34'0 0.0
2018-Jan-10 14:00N 27°29' W 090°34'0 0.0
2018-Jan-10 13:29N 27°29' W 090°34'0 0.0
2018-Jan-10 13:00N 27°29' W 090°34'0 0.0
2018-Jan-10 12:29N 27°29' W 090°34'0 0.0
2018-Jan-10 11:58N 27°29' W 090°34'0 0.0
2018-Jan-10 11:29N 27°29' W 090°34'0 0.0
2018-Jan-10 10:54N 27°29' W 090°34'0 0.0
2018-Jan-10 10:29N 27°29' W 090°34'0 0.0
2018-Jan-10 09:59N 27°29' W 090°34'0 0.0
2018-Jan-10 09:28N 27°29' W 090°34'0 0.1
2018-Jan-10 08:59N 27°29' W 090°33'0 0.1
2018-Jan-10 08:28N 27°29' W 090°33'0 0.4
2018-Jan-10 08:00N 27°28' W 090°33'0 0.4
2018-Jan-10 07:30N 27°28' W 090°33'0 0.4
2018-Jan-10 06:59N 27°28' W 090°33'3 7.0
2018-Jan-10 06:29N 27°32' W 090°32'5 9.2
2018-Jan-10 05:59N 27°36' W 090°32'5 9.1
2018-Jan-10 05:29N 27°41' W 090°31'4 9.1
2018-Jan-10 05:00N 27°45' W 090°30'  
Track history (hours):
 
Tides and Currents Weather Stations Pressure Air Temp Water Temp Dewpoint Dewpoint Depression Visibility Wind Speed Wind Dir Waves Ship Positions

Harvey Spirit

Owner: Harvey Spirit LLC, New Orleans, LA. More information available from US FCC via Universal Licensing System and Coast Guard Vessel Documentation Center.

Last reported at 2018-Jan-11 18:50 UTC. Time now 2018-Feb-20 19:55 UTC.
Position N 27°31' W 090°35'.
Warning: this ship's position is 40 days out of date.

Length 80 m; draft 4.3 m.

Type: Other ship. MMSI: 368584000.

Date/timePositionNaut miles runAvg speedWind from/ knotsBaromVisibWave heightAir tempDewpointWater temp
2018-Jan-11 18:50N 27°31' W 090°35'2 6.5
2018-Jan-11 18:29N 27°29' W 090°33'0 0.6
2018-Jan-11 17:59N 27°29' W 090°34'0 0.2
2018-Jan-11 17:29N 27°29' W 090°34'0 0.2
2018-Jan-11 17:00N 27°29' W 090°33'0 0.3
2018-Jan-11 16:29N 27°28' W 090°33'0 0.1
2018-Jan-11 15:59N 27°28' W 090°33'0 0.4
2018-Jan-11 15:27N 27°29' W 090°34'0 0.1
2018-Jan-11 14:59N 27°29' W 090°34'0 0.3
2018-Jan-11 14:30N 27°28' W 090°34'0 0.1
2018-Jan-11 12:58N 27°29' W 090°34'0 0.0
2018-Jan-11 12:28N 27°29' W 090°34'0 0.2
2018-Jan-11 11:56N 27°28' W 090°34'0 0.3
2018-Jan-11 11:30N 27°28' W 090°34'0 0.1
2018-Jan-11 10:58N 27°28' W 090°34'0 0.0
2018-Jan-11 10:29N 27°28' W 090°34'0 0.2
2018-Jan-11 09:59N 27°28' W 090°34'0 0.1
2018-Jan-11 09:30N 27°29' W 090°34'1 0.9
2018-Jan-11 07:59N 27°27' W 090°35'1 0.2
2018-Jan-11 04:29N 27°28' W 090°34'1 1.2
2018-Jan-11 03:44N 27°29' W 090°34'0 0.0
2018-Jan-11 03:24N 27°29' W 090°34'0 0.0
2018-Jan-11 02:57N 27°29' W 090°34'0 0.0
2018-Jan-11 02:30N 27°29' W 090°34'0 0.0
2018-Jan-11 01:59N 27°29' W 090°34'0 0.0
2018-Jan-11 01:30N 27°29' W 090°34'0 0.0
2018-Jan-11 01:00N 27°29' W 090°34'0 0.2
2018-Jan-11 00:28N 27°28' W 090°34'0 0.3
2018-Jan-10 23:43N 27°29' W 090°34'0 0.0
2018-Jan-10 23:30N 27°29' W 090°34'0 0.0
2018-Jan-10 22:58N 27°29' W 090°34'0 0.0
2018-Jan-10 22:30N 27°29' W 090°34'0 0.0
2018-Jan-10 21:58N 27°29' W 090°34'0 0.0
2018-Jan-10 21:27N 27°29' W 090°34'0 0.0
2018-Jan-10 20:59N 27°29' W 090°34'0 0.0
2018-Jan-10 20:30N 27°29' W 090°34'0 0.0
2018-Jan-10 20:00N 27°29' W 090°34'0 0.1
2018-Jan-10 19:30N 27°29' W 090°34'0 0.0
2018-Jan-10 18:58N 27°29' W 090°34'0 0.0
2018-Jan-10 18:30N 27°29' W 090°34'0 0.0
2018-Jan-10 18:00N 27°29' W 090°34'0 0.0
2018-Jan-10 17:29N 27°29' W 090°34'0 0.0
2018-Jan-10 17:00N 27°29' W 090°34'0 0.0
2018-Jan-10 16:26N 27°29' W 090°34'0 0.0
2018-Jan-10 15:59N 27°29' W 090°34'0 0.0
2018-Jan-10 15:30N 27°29' W 090°34'0 0.0
2018-Jan-10 15:00N 27°29' W 090°34'0 0.0
2018-Jan-10 14:29N 27°29' W 090°34'0 0.0
2018-Jan-10 14:00N 27°29' W 090°34'0 0.0
2018-Jan-10 13:29N 27°29' W 090°34'0 0.0
2018-Jan-10 13:00N 27°29' W 090°34'0 0.0
2018-Jan-10 12:29N 27°29' W 090°34'0 0.0
2018-Jan-10 11:58N 27°29' W 090°34'0 0.0
2018-Jan-10 11:29N 27°29' W 090°34'0 0.0
2018-Jan-10 10:54N 27°29' W 090°34'0 0.0
2018-Jan-10 10:29N 27°29' W 090°34'0 0.0
2018-Jan-10 09:59N 27°29' W 090°34'0 0.0
2018-Jan-10 09:28N 27°29' W 090°34'0 0.1
2018-Jan-10 08:59N 27°29' W 090°33'0 0.1
2018-Jan-10 08:28N 27°29' W 090°33'0 0.4
2018-Jan-10 08:00N 27°28' W 090°33'0 0.4
2018-Jan-10 07:30N 27°28' W 090°33'0 0.4
2018-Jan-10 06:59N 27°28' W 090°33'3 7.0
2018-Jan-10 06:29N 27°32' W 090°32'5 9.2
2018-Jan-10 05:59N 27°36' W 090°32'5 9.1
2018-Jan-10 05:29N 27°41' W 090°31'4 9.1
2018-Jan-10 05:00N 27°45' W 090°30'  

Dump ship's entire track history